createdAt,value
2023-01-06T00:00:21.056Z,0.00
2023-01-06T00:01:20.980Z,0.00
2023-01-06T00:02:21.025Z,0.00
2023-01-06T00:03:20.978Z,0.00
2023-01-06T00:04:20.971Z,0.00
2023-01-06T00:05:21.135Z,0.00
2023-01-06T00:06:21.282Z,0.00
2023-01-06T00:07:20.914Z,0.00
2023-01-06T00:08:20.889Z,0.00
2023-01-06T00:09:20.880Z,0.00
2023-01-06T00:10:20.854Z,0.00
2023-01-06T00:11:20.842Z,0.00
2023-01-06T00:12:20.845Z,0.00
2023-01-06T00:13:20.826Z,0.00
2023-01-06T00:14:20.801Z,0.00
2023-01-06T00:15:20.791Z,0.00
2023-01-06T00:16:20.772Z,0.00
2023-01-06T00:17:20.790Z,0.00
2023-01-06T00:18:20.757Z,0.00
2023-01-06T00:19:20.739Z,0.00
2023-01-06T00:20:20.731Z,0.00
2023-01-06T00:21:20.743Z,0.00
2023-01-06T00:22:20.722Z,0.00
2023-01-06T00:23:20.705Z,0.00
2023-01-06T00:24:20.671Z,0.00
2023-01-06T00:25:20.701Z,0.00
2023-01-06T00:26:20.667Z,0.00
2023-01-06T00:27:20.653Z,0.00
2023-01-06T00:28:20.618Z,0.00
2023-01-06T00:29:20.615Z,0.00
2023-01-06T00:30:20.599Z,0.00
2023-01-06T00:31:20.656Z,0.00
2023-01-06T00:32:20.636Z,0.00
2023-01-06T00:33:20.564Z,0.00
2023-01-06T00:34:20.537Z,0.00
2023-01-06T00:35:20.558Z,0.00
2023-01-06T00:36:20.528Z,0.00
2023-01-06T00:37:20.529Z,0.00
2023-01-06T00:38:20.496Z,0.00
2023-01-06T00:39:20.491Z,0.00
2023-01-06T00:40:20.467Z,0.00
2023-01-06T00:41:20.469Z,0.00
2023-01-06T00:42:20.460Z,0.00
2023-01-06T00:43:20.430Z,0.00
2023-01-06T00:44:20.406Z,0.00
2023-01-06T00:45:20.424Z,0.00
2023-01-06T00:46:20.423Z,0.00
2023-01-06T00:47:20.397Z,0.00
2023-01-06T00:48:20.498Z,0.00
2023-01-06T00:49:20.360Z,0.00
2023-01-06T00:50:20.337Z,0.00
2023-01-06T00:51:20.350Z,0.00
2023-01-06T00:52:20.325Z,0.00
2023-01-06T00:53:20.312Z,0.00
2023-01-06T00:54:20.295Z,0.00
2023-01-06T00:55:20.305Z,0.00
2023-01-06T00:56:20.285Z,0.00
2023-01-06T00:57:20.261Z,0.00
2023-01-06T00:58:20.235Z,0.00
2023-01-06T00:59:20.233Z,0.00
2023-01-06T01:00:20.224Z,0.00
2023-01-06T01:01:20.319Z,0.00
2023-01-06T01:02:20.334Z,0.00
2023-01-06T01:03:20.228Z,0.00
2023-01-06T01:04:20.165Z,0.00
2023-01-06T01:05:20.168Z,0.00
2023-01-06T01:06:20.153Z,0.00
2023-01-06T01:07:20.121Z,0.00
2023-01-06T01:08:20.103Z,0.00
2023-01-06T01:09:20.095Z,0.00
2023-01-06T01:10:20.086Z,0.00
2023-01-06T01:11:20.074Z,0.00
2023-01-06T01:12:20.051Z,0.00
2023-01-06T01:13:20.053Z,0.00
2023-01-06T01:14:20.321Z,0.00
2023-01-06T01:15:20.011Z,0.00
2023-01-06T01:16:20.026Z,0.00
2023-01-06T01:17:19.990Z,0.00
2023-01-06T01:18:20.001Z,0.00
2023-01-06T01:19:19.959Z,0.00
2023-01-06T01:20:19.942Z,0.00
2023-01-06T01:21:19.956Z,0.00
2023-01-06T01:22:20.209Z,0.00
2023-01-06T01:23:19.921Z,0.00
2023-01-06T01:24:19.912Z,0.00
2023-01-06T01:25:19.889Z,0.00
2023-01-06T01:26:19.879Z,0.00
2023-01-06T01:27:19.902Z,0.00
2023-01-06T01:28:19.853Z,0.00
2023-01-06T01:29:19.847Z,0.00
2023-01-06T01:30:19.821Z,0.00
2023-01-06T01:31:19.884Z,0.00
2023-01-06T01:32:19.807Z,0.00
2023-01-06T01:33:19.780Z,0.00
2023-01-06T01:34:19.784Z,0.00
2023-01-06T01:35:19.752Z,0.00
2023-01-06T01:36:19.810Z,0.00
2023-01-06T01:37:19.748Z,0.00
2023-01-06T01:38:19.725Z,0.00
2023-01-06T01:39:19.735Z,0.00
2023-01-06T01:40:19.704Z,0.00
2023-01-06T01:41:19.693Z,0.00
2023-01-06T01:42:19.706Z,0.00
2023-01-06T01:43:19.647Z,0.00
2023-01-06T01:44:19.657Z,0.00
2023-01-06T01:45:19.628Z,0.00
2023-01-06T01:46:19.653Z,0.00
2023-01-06T01:47:19.608Z,0.00
2023-01-06T01:48:19.586Z,0.00
2023-01-06T01:49:19.580Z,0.00
2023-01-06T01:50:19.580Z,0.00
2023-01-06T01:51:19.570Z,0.00
2023-01-06T01:52:19.573Z,0.00
2023-01-06T01:53:19.536Z,0.00
2023-01-06T01:54:19.507Z,0.00
2023-01-06T01:55:19.504Z,0.00
2023-01-06T01:56:19.530Z,0.00
2023-01-06T01:57:19.468Z,0.00
2023-01-06T01:58:19.464Z,0.00
2023-01-06T01:59:19.450Z,0.00
2023-01-06T02:00:19.441Z,0.00
2023-01-06T02:01:19.643Z,0.00
2023-01-06T02:02:19.520Z,0.00
2023-01-06T02:03:19.446Z,0.00
2023-01-06T02:04:19.409Z,0.00
2023-01-06T02:05:19.396Z,0.00
2023-01-06T02:06:19.377Z,0.00
2023-01-06T02:07:19.351Z,0.00
2023-01-06T02:08:19.342Z,0.00
2023-01-06T02:09:19.583Z,0.00
2023-01-06T02:10:19.320Z,0.00
2023-01-06T02:11:19.325Z,0.00
2023-01-06T02:12:19.293Z,0.00
2023-01-06T02:13:19.272Z,0.00
2023-01-06T02:14:19.252Z,0.00
2023-01-06T02:15:19.272Z,0.00
2023-01-06T02:16:19.292Z,0.00
2023-01-06T02:17:19.215Z,0.00
2023-01-06T02:18:19.203Z,0.00
2023-01-06T02:19:19.203Z,0.00
2023-01-06T02:20:19.179Z,0.00
2023-01-06T02:21:19.175Z,0.00
2023-01-06T02:22:19.159Z,0.00
2023-01-06T02:23:19.130Z,0.00
2023-01-06T02:24:19.134Z,0.00
2023-01-06T02:25:19.112Z,0.00
2023-01-06T02:26:19.127Z,0.00
2023-01-06T02:27:19.082Z,0.00
2023-01-06T02:28:19.107Z,0.00
2023-01-06T02:29:19.066Z,0.00
2023-01-06T02:30:19.041Z,0.00
2023-01-06T02:31:19.080Z,0.00
2023-01-06T02:32:19.027Z,0.00
2023-01-06T02:33:19.042Z,0.00
2023-01-06T02:34:18.999Z,0.00
2023-01-06T02:35:18.997Z,0.00
2023-01-06T02:36:18.995Z,0.00
2023-01-06T02:37:18.957Z,0.00
2023-01-06T02:38:18.954Z,0.00
2023-01-06T02:39:18.934Z,0.00
2023-01-06T02:40:18.931Z,0.00
2023-01-06T02:41:18.929Z,0.00
2023-01-06T02:42:18.914Z,0.00
2023-01-06T02:43:18.884Z,0.00
2023-01-06T02:44:18.870Z,0.00
2023-01-06T02:45:18.865Z,0.00
2023-01-06T02:46:18.863Z,0.00
2023-01-06T02:47:18.831Z,0.00
2023-01-06T02:48:18.859Z,0.00
2023-01-06T02:49:18.796Z,0.00
2023-01-06T02:50:18.809Z,0.00
2023-01-06T02:51:18.791Z,0.00
2023-01-06T02:52:18.785Z,0.00
2023-01-06T02:53:18.759Z,0.00
2023-01-06T02:54:18.731Z,0.00
2023-01-06T02:55:18.721Z,0.00
2023-01-06T02:56:18.721Z,0.00
2023-01-06T02:57:18.692Z,0.00
2023-01-06T02:58:18.697Z,0.00
2023-01-06T02:59:18.805Z,0.00
2023-01-06T03:00:18.670Z,0.00
2023-01-06T03:01:18.759Z,0.00
2023-01-06T03:02:18.698Z,0.00
2023-01-06T03:03:18.657Z,0.00
2023-01-06T03:04:18.623Z,0.00
2023-01-06T03:05:18.588Z,0.00
2023-01-06T03:06:18.595Z,0.00
2023-01-06T03:07:18.571Z,0.00
2023-01-06T03:08:18.570Z,0.00
2023-01-06T03:09:18.563Z,0.00
2023-01-06T03:10:18.527Z,0.00
2023-01-06T03:11:18.517Z,0.00
2023-01-06T03:12:18.510Z,0.00
2023-01-06T03:13:18.511Z,0.00
2023-01-06T03:14:18.479Z,0.00
2023-01-06T03:15:18.700Z,0.00
2023-01-06T03:16:18.472Z,0.00
2023-01-06T03:17:18.428Z,0.00
2023-01-06T03:18:18.421Z,0.00
2023-01-06T03:19:18.409Z,0.00
2023-01-06T03:20:18.396Z,0.00
2023-01-06T03:21:18.388Z,0.00
2023-01-06T03:22:18.380Z,0.00
2023-01-06T03:23:18.347Z,0.00
2023-01-06T03:24:18.347Z,0.00
2023-01-06T03:25:18.349Z,0.00
2023-01-06T03:26:18.329Z,0.00
2023-01-06T03:27:18.297Z,0.00
2023-01-06T03:28:18.290Z,0.00
2023-01-06T03:29:18.323Z,0.00
2023-01-06T03:30:18.267Z,0.00
2023-01-06T03:31:18.302Z,0.00
2023-01-06T03:32:18.241Z,0.00
2023-01-06T03:33:18.225Z,0.00
2023-01-06T03:34:18.214Z,0.00
2023-01-06T03:35:18.197Z,0.00
2023-01-06T03:36:18.214Z,0.00
2023-01-06T03:37:18.177Z,0.00
2023-01-06T03:38:18.164Z,0.00
2023-01-06T03:39:18.148Z,0.00
2023-01-06T03:40:18.157Z,0.00
2023-01-06T03:41:18.124Z,0.00
2023-01-06T03:42:34.930Z,0.00
2023-01-06T03:43:19.132Z,0.00
2023-01-06T03:44:18.091Z,0.00
2023-01-06T03:45:18.086Z,0.00
2023-01-06T03:46:18.101Z,0.00
2023-01-06T03:47:18.048Z,0.00
2023-01-06T03:48:18.035Z,0.00
2023-01-06T03:49:18.016Z,0.00
2023-01-06T03:50:18.013Z,0.00
2023-01-06T03:51:18.000Z,0.00
2023-01-06T03:52:17.984Z,0.00
2023-01-06T03:53:17.963Z,0.00
2023-01-06T03:54:17.961Z,0.00
2023-01-06T03:55:17.943Z,0.00
2023-01-06T03:56:17.936Z,0.00
2023-01-06T03:57:17.904Z,0.00
2023-01-06T03:58:17.902Z,0.00
2023-01-06T03:59:17.882Z,0.00
2023-01-06T04:00:17.903Z,0.00
2023-01-06T04:01:17.993Z,0.00
2023-01-06T04:02:17.842Z,0.00
2023-01-06T04:03:17.836Z,0.00
2023-01-06T04:04:17.822Z,0.00
2023-01-06T04:05:17.824Z,0.00
2023-01-06T04:06:17.809Z,0.00
2023-01-06T04:07:17.779Z,0.00
2023-01-06T04:08:17.788Z,0.00
2023-01-06T04:09:17.766Z,0.00
2023-01-06T04:10:17.763Z,0.00
2023-01-06T04:11:17.778Z,0.00
2023-01-06T04:12:17.750Z,0.00
2023-01-06T04:13:17.700Z,0.00
2023-01-06T04:14:17.702Z,0.00
2023-01-06T04:15:17.707Z,0.00
2023-01-06T04:16:17.691Z,0.00
2023-01-06T04:17:17.656Z,0.00
2023-01-06T04:18:17.644Z,0.00
2023-01-06T04:19:17.618Z,0.00
2023-01-06T04:20:17.635Z,0.00
2023-01-06T04:21:17.610Z,0.00
2023-01-06T04:22:17.634Z,0.00
2023-01-06T04:23:17.569Z,0.00
2023-01-06T04:24:17.559Z,0.00
2023-01-06T04:25:17.568Z,0.00
2023-01-06T04:26:17.551Z,0.00
2023-01-06T04:27:17.546Z,0.00
2023-01-06T04:28:17.505Z,0.00
2023-01-06T04:29:17.518Z,0.00
2023-01-06T04:30:17.502Z,0.00
2023-01-06T04:31:17.500Z,0.00
2023-01-06T04:32:17.475Z,0.00
2023-01-06T04:33:17.439Z,0.00
2023-01-06T04:34:17.443Z,0.00
2023-01-06T04:35:17.431Z,0.00
2023-01-06T04:36:17.414Z,0.00
2023-01-06T04:37:17.648Z,0.00
2023-01-06T04:38:17.404Z,0.00
2023-01-06T04:39:17.368Z,0.00
2023-01-06T04:40:17.399Z,0.00
2023-01-06T04:41:17.603Z,0.00
2023-01-06T04:42:17.338Z,0.00
2023-01-06T04:43:17.321Z,0.00
2023-01-06T04:44:17.299Z,0.00
2023-01-06T04:45:17.299Z,0.00
2023-01-06T04:46:17.272Z,0.00
2023-01-06T04:47:17.519Z,0.00
2023-01-06T04:48:17.273Z,0.00
2023-01-06T04:49:17.232Z,0.00
2023-01-06T04:50:17.224Z,0.00
2023-01-06T04:51:17.203Z,0.00
2023-01-06T04:52:17.202Z,0.00
2023-01-06T04:53:17.189Z,0.00
2023-01-06T04:54:17.165Z,0.00
2023-01-06T04:55:17.167Z,0.00
2023-01-06T04:56:17.149Z,0.00
2023-01-06T04:57:17.128Z,0.00
2023-01-06T04:58:17.127Z,0.00
2023-01-06T04:59:17.105Z,0.00
2023-01-06T05:00:17.121Z,0.00
2023-01-06T05:01:17.144Z,0.00
2023-01-06T05:02:17.068Z,0.00
2023-01-06T05:03:17.096Z,0.00
2023-01-06T05:04:17.044Z,0.00
2023-01-06T05:05:17.035Z,0.00
2023-01-06T05:06:17.011Z,0.00
2023-01-06T05:07:17.012Z,0.00
2023-01-06T05:08:16.984Z,0.00
2023-01-06T05:09:16.975Z,0.00
2023-01-06T05:10:16.984Z,0.00
2023-01-06T05:11:16.944Z,0.00
2023-01-06T05:12:16.933Z,0.00
2023-01-06T05:13:16.945Z,0.00
2023-01-06T05:14:17.238Z,0.00
2023-01-06T05:15:16.915Z,0.00
2023-01-06T05:16:16.916Z,0.00
2023-01-06T05:17:16.875Z,0.00
2023-01-06T05:18:16.868Z,0.00
2023-01-06T05:19:16.845Z,0.00
2023-01-06T05:20:16.856Z,0.00
2023-01-06T05:21:16.824Z,0.00
2023-01-06T05:22:16.808Z,0.00
2023-01-06T05:23:16.793Z,0.00
2023-01-06T05:24:16.782Z,0.00
2023-01-06T05:25:16.804Z,0.00
2023-01-06T05:26:16.767Z,0.00
2023-01-06T05:27:16.764Z,0.00
2023-01-06T05:28:16.727Z,0.00
2023-01-06T05:29:16.742Z,0.00
2023-01-06T05:30:16.702Z,0.00
2023-01-06T05:31:16.740Z,0.00
2023-01-06T05:32:16.711Z,0.00
2023-01-06T05:33:16.691Z,0.00
2023-01-06T05:34:16.646Z,0.00
2023-01-06T05:35:16.647Z,0.00
2023-01-06T05:36:16.731Z,0.00
2023-01-06T05:37:16.608Z,0.00
2023-01-06T05:38:16.590Z,0.00
2023-01-06T05:39:16.599Z,0.00
2023-01-06T05:40:16.610Z,0.00
2023-01-06T05:41:16.590Z,0.00
2023-01-06T05:42:16.539Z,0.00
2023-01-06T05:43:16.566Z,0.00
2023-01-06T05:44:16.534Z,0.00
2023-01-06T05:45:16.542Z,0.00
2023-01-06T05:46:16.508Z,0.00
2023-01-06T05:47:16.490Z,0.00
2023-01-06T05:48:16.510Z,0.00
2023-01-06T05:49:16.474Z,0.00
2023-01-06T05:50:16.447Z,0.00
2023-01-06T05:51:16.460Z,0.00
2023-01-06T05:52:16.411Z,0.00
2023-01-06T05:53:16.401Z,0.00
2023-01-06T05:54:16.408Z,0.00
2023-01-06T05:55:16.378Z,0.00
2023-01-06T05:56:16.360Z,0.00
2023-01-06T05:57:16.349Z,0.00
2023-01-06T05:58:16.343Z,0.00
2023-01-06T05:59:16.344Z,0.00
2023-01-06T06:00:16.311Z,0.00
2023-01-06T06:01:16.771Z,0.00
2023-01-06T06:02:16.307Z,0.00
2023-01-06T06:03:16.276Z,0.00
2023-01-06T06:04:16.282Z,0.00
2023-01-06T06:05:16.278Z,0.00
2023-01-06T06:06:16.224Z,0.00
2023-01-06T06:07:16.225Z,0.00
2023-01-06T06:08:16.202Z,0.00
2023-01-06T06:09:16.211Z,0.00
2023-01-06T06:10:16.179Z,0.00
2023-01-06T06:11:16.173Z,0.00
2023-01-06T06:12:16.149Z,0.00
2023-01-06T06:13:16.138Z,0.00
2023-01-06T06:14:17.297Z,0.00
2023-01-06T06:15:16.127Z,0.00
2023-01-06T06:16:16.128Z,0.00
2023-01-06T06:17:16.085Z,0.00
2023-01-06T06:18:16.076Z,0.00
2023-01-06T06:19:16.089Z,0.00
2023-01-06T06:20:16.064Z,0.00
2023-01-06T06:21:16.034Z,0.00
2023-01-06T06:22:16.029Z,0.00
2023-01-06T06:23:16.008Z,0.00
2023-01-06T06:24:16.002Z,0.00
2023-01-06T06:25:15.995Z,0.00
2023-01-06T06:26:16.223Z,0.00
2023-01-06T06:27:15.956Z,0.00
2023-01-06T06:28:15.940Z,0.00
2023-01-06T06:29:15.941Z,0.00
2023-01-06T06:30:15.923Z,0.00
2023-01-06T06:31:15.936Z,0.00
2023-01-06T06:32:15.907Z,0.00
2023-01-06T06:33:15.880Z,0.00
2023-01-06T06:34:15.884Z,0.00
2023-01-06T06:35:15.854Z,0.00
2023-01-06T06:36:16.156Z,0.00
2023-01-06T06:37:15.828Z,0.00
2023-01-06T06:38:15.830Z,0.00
2023-01-06T06:39:15.839Z,0.00
2023-01-06T06:40:15.782Z,0.00
2023-01-06T06:41:15.777Z,0.00
2023-01-06T06:42:15.754Z,0.00
2023-01-06T06:43:15.756Z,0.00
2023-01-06T06:44:15.733Z,0.00
2023-01-06T06:45:15.720Z,0.00
2023-01-06T06:46:15.733Z,0.00
2023-01-06T06:47:15.700Z,0.00
2023-01-06T06:48:15.688Z,4.00
2023-01-06T06:49:15.672Z,0.00
2023-01-06T06:50:15.650Z,4.00
2023-01-06T06:51:15.631Z,4.00
2023-01-06T06:52:15.621Z,4.00
2023-01-06T06:53:15.634Z,4.00
2023-01-06T06:54:15.606Z,4.00
2023-01-06T06:55:15.594Z,4.00
2023-01-06T06:56:15.592Z,8.00
2023-01-06T06:57:15.558Z,12.00
2023-01-06T06:58:15.560Z,12.00
2023-01-06T06:59:15.539Z,16.00
2023-01-06T07:00:15.510Z,16.00
2023-01-06T07:01:15.615Z,16.00
2023-01-06T07:02:15.596Z,16.00
2023-01-06T07:03:15.507Z,16.00
2023-01-06T07:04:15.494Z,20.00
2023-01-06T07:05:15.469Z,20.00
2023-01-06T07:06:15.444Z,20.00
2023-01-06T07:07:15.428Z,24.00
2023-01-06T07:08:15.428Z,24.00
2023-01-06T07:09:15.410Z,24.00
2023-01-06T07:10:15.423Z,28.00
2023-01-06T07:11:15.376Z,28.00
2023-01-06T07:12:15.367Z,28.00
2023-01-06T07:13:15.354Z,24.00
2023-01-06T07:14:15.337Z,24.00
2023-01-06T07:15:15.348Z,24.00
2023-01-06T07:16:15.356Z,28.00
2023-01-06T07:17:15.299Z,28.00
2023-01-06T07:18:15.303Z,36.00
2023-01-06T07:19:15.268Z,36.00
2023-01-06T07:20:15.270Z,40.00
2023-01-06T07:21:15.257Z,44.00
2023-01-06T07:22:15.231Z,56.00
2023-01-06T07:23:15.273Z,60.00
2023-01-06T07:24:15.202Z,68.00
2023-01-06T07:25:15.194Z,72.00
2023-01-06T07:26:15.166Z,80.00
2023-01-06T07:27:15.164Z,80.00
2023-01-06T07:28:15.167Z,84.00
2023-01-06T07:29:15.154Z,80.00
2023-01-06T07:30:15.143Z,80.00
2023-01-06T07:31:15.129Z,80.00
2023-01-06T07:32:15.096Z,92.00
2023-01-06T07:33:15.114Z,100.00
2023-01-06T07:34:15.077Z,92.00
2023-01-06T07:35:15.065Z,96.00
2023-01-06T07:36:15.044Z,92.00
2023-01-06T07:37:15.035Z,92.00
2023-01-06T07:38:15.039Z,84.00
2023-01-06T07:39:15.051Z,84.00
2023-01-06T07:40:15.001Z,88.00
2023-01-06T07:41:14.973Z,96.00
2023-01-06T07:42:14.969Z,112.00
2023-01-06T07:43:14.988Z,132.00
2023-01-06T07:44:17.192Z,152.00
2023-01-06T07:45:14.958Z,164.00
2023-01-06T07:46:15.597Z,188.00
2023-01-06T07:47:14.892Z,188.00
2023-01-06T07:48:14.904Z,192.00
2023-01-06T07:49:14.913Z,200.00
2023-01-06T07:50:14.932Z,164.00
2023-01-06T07:51:14.859Z,144.00
2023-01-06T07:52:14.837Z,132.00
2023-01-06T07:53:14.851Z,124.00
2023-01-06T07:54:15.157Z,120.00
2023-01-06T07:55:14.793Z,132.00
2023-01-06T07:56:14.792Z,152.00
2023-01-06T07:57:15.419Z,160.00
2023-01-06T07:58:14.775Z,176.00
2023-01-06T07:59:14.785Z,204.00
2023-01-06T08:00:14.796Z,256.00
2023-01-06T08:01:14.824Z,296.00
2023-01-06T08:02:14.732Z,260.00
2023-01-06T08:03:14.729Z,272.00
2023-01-06T08:04:14.671Z,304.00
2023-01-06T08:05:14.721Z,296.00
2023-01-06T08:06:14.642Z,268.00
2023-01-06T08:07:14.641Z,268.00
2023-01-06T08:08:14.641Z,280.00
2023-01-06T08:09:14.620Z,292.00
2023-01-06T08:10:14.610Z,296.00
2023-01-06T08:11:14.590Z,300.00
2023-01-06T08:12:14.567Z,308.00
2023-01-06T08:13:14.582Z,348.00
2023-01-06T08:14:14.551Z,372.00
2023-01-06T08:15:14.541Z,364.00
2023-01-06T08:16:14.551Z,348.00
2023-01-06T08:17:14.509Z,340.00
2023-01-06T08:18:14.508Z,292.00
2023-01-06T08:19:14.485Z,264.00
2023-01-06T08:20:14.473Z,248.00
2023-01-06T08:21:14.450Z,244.00
2023-01-06T08:22:14.437Z,228.00
2023-01-06T08:23:14.455Z,224.00
2023-01-06T08:24:14.418Z,224.00
2023-01-06T08:25:14.408Z,216.00
2023-01-06T08:26:14.414Z,208.00
2023-01-06T08:27:14.407Z,212.00
2023-01-06T08:28:14.379Z,228.00
2023-01-06T08:29:14.350Z,240.00
2023-01-06T08:30:14.353Z,236.00
2023-01-06T08:31:14.387Z,228.00
2023-01-06T08:32:14.314Z,216.00
2023-01-06T08:33:14.315Z,212.00
2023-01-06T08:34:14.281Z,200.00
2023-01-06T08:35:14.267Z,188.00
2023-01-06T08:36:14.271Z,176.00
2023-01-06T08:37:14.248Z,160.00
2023-01-06T08:38:14.246Z,140.00
2023-01-06T08:39:14.252Z,140.00
2023-01-06T08:40:14.198Z,136.00
2023-01-06T08:41:14.212Z,160.00
2023-01-06T08:42:14.166Z,192.00
2023-01-06T08:43:14.181Z,212.00
2023-01-06T08:44:14.149Z,212.00
2023-01-06T08:45:14.151Z,236.00
2023-01-06T08:46:14.132Z,276.00
2023-01-06T08:47:14.114Z,300.00
2023-01-06T08:48:14.117Z,316.00
2023-01-06T08:49:14.090Z,320.00
2023-01-06T08:50:14.102Z,316.00
2023-01-06T08:51:14.062Z,352.00
2023-01-06T08:52:14.058Z,388.00
2023-01-06T08:53:14.067Z,424.00
2023-01-06T08:54:14.035Z,476.00
2023-01-06T08:55:14.016Z,512.00
2023-01-06T08:56:14.007Z,516.00
2023-01-06T08:57:13.992Z,480.00
2023-01-06T08:58:13.978Z,412.00
2023-01-06T08:59:13.965Z,364.00
2023-01-06T09:00:13.935Z,352.00
2023-01-06T09:01:13.994Z,344.00
2023-01-06T09:02:14.083Z,324.00
2023-01-06T09:03:13.912Z,360.00
2023-01-06T09:04:13.938Z,380.00
2023-01-06T09:05:13.925Z,396.00
2023-01-06T09:06:14.127Z,440.00
2023-01-06T09:07:13.857Z,484.00
2023-01-06T09:08:13.865Z,488.00
2023-01-06T09:09:13.852Z,476.00
2023-01-06T09:10:13.815Z,448.00
2023-01-06T09:11:13.794Z,456.00
2023-01-06T09:12:13.779Z,512.00
2023-01-06T09:13:13.793Z,620.00
2023-01-06T09:14:13.761Z,716.00
2023-01-06T09:15:13.741Z,804.00
2023-01-06T09:16:13.795Z,856.00
2023-01-06T09:17:13.727Z,940.00
2023-01-06T09:18:13.715Z,1036.00
2023-01-06T09:19:13.692Z,1148.00
2023-01-06T09:20:13.680Z,1388.00
2023-01-06T09:21:13.661Z,1360.00
2023-01-06T09:22:13.648Z,1152.00
2023-01-06T09:23:13.648Z,1044.00
2023-01-06T09:24:13.629Z,960.00
2023-01-06T09:25:13.929Z,848.00
2023-01-06T09:26:13.617Z,792.00
2023-01-06T09:27:13.587Z,764.00
2023-01-06T09:28:13.591Z,744.00
2023-01-06T09:29:13.565Z,700.00
2023-01-06T09:30:13.544Z,660.00
2023-01-06T09:31:13.599Z,624.00
2023-01-06T09:32:13.529Z,572.00
2023-01-06T09:33:13.530Z,524.00
2023-01-06T09:34:13.492Z,496.00
2023-01-06T09:35:13.476Z,480.00
2023-01-06T09:36:13.469Z,504.00
2023-01-06T09:37:13.467Z,560.00
2023-01-06T09:38:13.450Z,616.00
2023-01-06T09:39:13.419Z,628.00
2023-01-06T09:40:13.669Z,628.00
2023-01-06T09:41:13.427Z,620.00
2023-01-06T09:42:13.388Z,600.00
2023-01-06T09:43:13.437Z,588.00
2023-01-06T09:44:13.356Z,576.00
2023-01-06T09:45:13.390Z,572.00
2023-01-06T09:46:13.402Z,556.00
2023-01-06T09:47:13.310Z,544.00
2023-01-06T09:48:13.357Z,536.00
2023-01-06T09:49:13.288Z,528.00
2023-01-06T09:50:13.282Z,528.00
2023-01-06T09:51:13.257Z,512.00
2023-01-06T09:52:13.278Z,500.00
2023-01-06T09:53:13.267Z,496.00
2023-01-06T09:54:13.241Z,492.00
2023-01-06T09:55:13.196Z,488.00
2023-01-06T09:56:13.229Z,484.00
2023-01-06T09:57:13.216Z,480.00
2023-01-06T09:58:13.168Z,472.00
2023-01-06T09:59:13.161Z,468.00
2023-01-06T10:00:13.148Z,472.00
2023-01-06T10:01:13.168Z,468.00
2023-01-06T10:02:13.159Z,472.00
2023-01-06T10:03:13.113Z,476.00
2023-01-06T10:04:13.146Z,476.00
2023-01-06T10:05:13.096Z,476.00
2023-01-06T10:06:13.100Z,480.00
2023-01-06T10:07:13.068Z,484.00
2023-01-06T10:08:13.047Z,496.00
2023-01-06T10:09:13.026Z,512.00
2023-01-06T10:10:13.032Z,520.00
2023-01-06T10:11:13.004Z,536.00
2023-01-06T10:12:13.028Z,532.00
2023-01-06T10:13:12.994Z,536.00
2023-01-06T10:14:12.975Z,524.00
2023-01-06T10:15:12.952Z,524.00
2023-01-06T10:16:13.046Z,500.00
2023-01-06T10:17:12.946Z,472.00
2023-01-06T10:18:12.906Z,448.00
2023-01-06T10:19:12.899Z,448.00
2023-01-06T10:20:12.902Z,460.00
2023-01-06T10:21:12.865Z,460.00
2023-01-06T10:22:12.878Z,464.00
2023-01-06T10:23:12.844Z,476.00
2023-01-06T10:24:12.852Z,480.00
2023-01-06T10:25:12.815Z,500.00
2023-01-06T10:26:12.816Z,508.00
2023-01-06T10:27:12.796Z,524.00
2023-01-06T10:28:12.785Z,544.00
2023-01-06T10:29:12.760Z,564.00
2023-01-06T10:30:12.758Z,580.00
2023-01-06T10:31:12.810Z,608.00
2023-01-06T10:32:12.746Z,644.00
2023-01-06T10:33:12.715Z,672.00
2023-01-06T10:34:12.716Z,712.00
2023-01-06T10:35:12.704Z,748.00
2023-01-06T10:36:12.704Z,812.00
2023-01-06T10:37:12.671Z,872.00
2023-01-06T10:38:12.650Z,860.00
2023-01-06T10:39:12.635Z,820.00
2023-01-06T10:40:12.622Z,796.00
2023-01-06T10:41:12.605Z,804.00
2023-01-06T10:42:12.614Z,820.00
2023-01-06T10:43:12.582Z,868.00
2023-01-06T10:44:12.576Z,940.00
2023-01-06T10:45:12.542Z,944.00
2023-01-06T10:46:12.600Z,944.00
2023-01-06T10:47:12.530Z,960.00
2023-01-06T10:48:12.521Z,880.00
2023-01-06T10:49:12.516Z,776.00
2023-01-06T10:50:12.492Z,740.00
2023-01-06T10:51:12.485Z,752.00
2023-01-06T10:52:12.741Z,716.00
2023-01-06T10:53:12.453Z,620.00
2023-01-06T10:54:12.448Z,556.00
2023-01-06T10:55:12.468Z,548.00
2023-01-06T10:56:12.434Z,476.00
2023-01-06T10:57:12.395Z,464.00
2023-01-06T10:58:12.384Z,456.00
2023-01-06T10:59:12.375Z,468.00
2023-01-06T11:00:12.362Z,500.00
2023-01-06T11:01:12.531Z,516.00
2023-01-06T11:02:12.443Z,508.00
2023-01-06T11:03:32.289Z,500.00
2023-01-06T11:04:13.338Z,444.00
2023-01-06T11:05:12.290Z,404.00
2023-01-06T11:06:12.298Z,380.00
2023-01-06T11:07:12.453Z,348.00
2023-01-06T11:08:12.264Z,360.00
2023-01-06T11:09:12.236Z,356.00
2023-01-06T11:10:12.233Z,344.00
2023-01-06T11:11:26.708Z,372.00
2023-01-06T11:12:13.212Z,380.00
2023-01-06T11:13:12.181Z,412.00
2023-01-06T11:14:12.186Z,444.00
2023-01-06T11:15:12.164Z,476.00
2023-01-06T11:16:12.191Z,492.00
2023-01-06T11:17:12.128Z,528.00
2023-01-06T11:18:12.132Z,520.00
2023-01-06T11:19:12.131Z,552.00
2023-01-06T11:20:12.123Z,616.00
2023-01-06T11:21:12.091Z,656.00
2023-01-06T11:22:12.079Z,716.00
2023-01-06T11:23:12.069Z,796.00
2023-01-06T11:24:12.042Z,848.00
2023-01-06T11:25:12.036Z,900.00
2023-01-06T11:26:12.032Z,928.00
2023-01-06T11:27:12.018Z,920.00
2023-01-06T11:28:11.992Z,908.00
2023-01-06T11:29:11.979Z,896.00
2023-01-06T11:30:13.446Z,924.00
2023-01-06T11:31:11.990Z,968.00
2023-01-06T11:32:11.940Z,936.00
2023-01-06T11:33:11.928Z,944.00
2023-01-06T11:34:11.921Z,1092.00
2023-01-06T11:35:11.899Z,1172.00
2023-01-06T11:36:11.917Z,1296.00
2023-01-06T11:37:11.883Z,1608.00
2023-01-06T11:38:11.870Z,1296.00
2023-01-06T11:39:11.852Z,1344.00
2023-01-06T11:40:11.980Z,1476.00
2023-01-06T11:41:11.830Z,1628.00
2023-01-06T11:42:11.825Z,1540.00
2023-01-06T11:43:11.821Z,1492.00
2023-01-06T11:44:11.830Z,1460.00
2023-01-06T11:45:11.766Z,1388.00
2023-01-06T11:46:11.797Z,1376.00
2023-01-06T11:47:11.741Z,1404.00
2023-01-06T11:48:11.749Z,1444.00
2023-01-06T11:49:11.709Z,1476.00
2023-01-06T11:50:11.719Z,1496.00
2023-01-06T11:51:11.687Z,1520.00
2023-01-06T11:52:11.688Z,1464.00
2023-01-06T11:53:11.657Z,1356.00
2023-01-06T11:54:11.646Z,1232.00
2023-01-06T11:55:13.376Z,1012.00
2023-01-06T11:56:11.647Z,844.00
2023-01-06T11:57:11.628Z,888.00
2023-01-06T11:58:11.597Z,868.00
2023-01-06T11:59:11.585Z,916.00
2023-01-06T12:00:11.575Z,924.00
2023-01-06T12:01:11.658Z,784.00
2023-01-06T12:02:11.582Z,696.00
2023-01-06T12:03:11.607Z,672.00
2023-01-06T12:04:11.785Z,708.00
2023-01-06T12:05:11.505Z,708.00
2023-01-06T12:06:11.531Z,780.00
2023-01-06T12:07:11.489Z,904.00
2023-01-06T12:08:11.464Z,1004.00
2023-01-06T12:09:11.446Z,1084.00
2023-01-06T12:10:11.438Z,1164.00
2023-01-06T12:11:11.446Z,1240.00
2023-01-06T12:12:11.413Z,1280.00
2023-01-06T12:13:11.420Z,1252.00
2023-01-06T12:14:27.053Z,1184.00
2023-01-06T12:15:12.363Z,1132.00
2023-01-06T12:16:11.432Z,1072.00
2023-01-06T12:17:11.461Z,1076.00
2023-01-06T12:18:11.337Z,1080.00
2023-01-06T12:19:11.398Z,1216.00
2023-01-06T12:20:13.234Z,1304.00
2023-01-06T12:21:11.304Z,1448.00
2023-01-06T12:22:11.284Z,1392.00
2023-01-06T12:23:11.281Z,1280.00
2023-01-06T12:24:11.381Z,1160.00
2023-01-06T12:25:11.257Z,1028.00
2023-01-06T12:26:11.248Z,948.00
2023-01-06T12:27:11.218Z,932.00
2023-01-06T12:28:11.238Z,912.00
2023-01-06T12:29:11.205Z,908.00
2023-01-06T12:30:11.199Z,948.00
2023-01-06T12:31:11.246Z,1016.00
2023-01-06T12:32:11.162Z,1128.00
2023-01-06T12:33:11.141Z,1204.00
2023-01-06T12:34:11.134Z,1260.00
2023-01-06T12:35:11.145Z,1276.00
2023-01-06T12:36:11.111Z,1344.00
2023-01-06T12:37:11.078Z,1376.00
2023-01-06T12:38:11.083Z,1312.00
2023-01-06T12:39:11.058Z,1228.00
2023-01-06T12:40:11.111Z,1200.00
2023-01-06T12:41:11.055Z,1216.00
2023-01-06T12:42:11.021Z,1240.00
2023-01-06T12:43:11.054Z,1212.00
2023-01-06T12:44:11.002Z,1268.00
2023-01-06T12:45:10.972Z,1264.00
2023-01-06T12:46:11.063Z,1320.00
2023-01-06T12:47:10.989Z,1320.00
2023-01-06T12:48:10.963Z,1336.00
2023-01-06T12:49:10.940Z,1340.00
2023-01-06T12:50:10.952Z,1400.00
2023-01-06T12:51:10.909Z,1464.00
2023-01-06T12:52:10.892Z,1456.00
2023-01-06T12:53:19.776Z,1468.00